createdAt,value
2023-03-19T00:03:13.001Z,280.59
2023-03-19T00:08:12.918Z,281.55
2023-03-19T00:13:12.821Z,281.31
2023-03-19T00:18:12.752Z,285.91
2023-03-19T00:23:12.695Z,283.95
2023-03-19T00:28:12.598Z,284.20
2023-03-19T00:33:12.586Z,284.20
2023-03-19T00:38:12.467Z,283.47
2023-03-19T00:43:12.413Z,286.41
2023-03-19T00:48:12.345Z,286.16
2023-03-19T00:53:12.279Z,283.71
2023-03-19T00:58:12.212Z,285.91
2023-03-19T01:03:12.142Z,285.67
2023-03-19T01:08:39.452Z,287.40
2023-03-19T01:13:31.890Z,284.44
2023-03-19T01:18:31.802Z,286.16
2023-03-19T01:23:31.734Z,286.41
2023-03-19T01:28:32.349Z,288.15
2023-03-19T01:33:31.595Z,287.15
2023-03-19T01:38:31.567Z,287.65
2023-03-19T01:43:31.467Z,287.65
2023-03-19T01:48:31.459Z,289.15
2023-03-19T01:53:31.325Z,291.44
2023-03-19T01:58:31.283Z,293.50
2023-03-19T02:03:31.192Z,291.69
2023-03-19T02:08:31.128Z,292.72
2023-03-19T02:13:31.074Z,291.95
2023-03-19T02:18:31.005Z,290.67
2023-03-19T02:23:30.930Z,290.16
2023-03-19T02:28:30.886Z,292.46
2023-03-19T02:33:30.807Z,292.46
2023-03-19T02:38:30.742Z,292.98
2023-03-19T02:43:30.665Z,294.80
2023-03-19T02:48:30.606Z,293.24
2023-03-19T02:53:30.551Z,294.28
2023-03-19T02:58:30.463Z,295.59
2023-03-19T03:03:30.384Z,295.86
2023-03-19T03:08:30.341Z,297.18
2023-03-19T03:13:30.290Z,298.25
2023-03-19T03:18:30.244Z,300.14
2023-03-19T03:23:30.138Z,302.60
2023-03-19T03:28:30.072Z,303.99
2023-03-19T03:33:29.980Z,307.08
2023-03-19T03:38:29.932Z,309.37
2023-03-19T03:43:29.894Z,311.11
2023-03-19T03:48:29.843Z,311.99
2023-03-19T03:53:29.720Z,312.58
2023-03-19T03:58:29.666Z,313.17
2023-03-19T04:03:29.715Z,315.25
2023-03-19T04:08:29.533Z,315.85
2023-03-19T04:13:29.461Z,314.95
2023-03-19T04:18:29.396Z,314.95
2023-03-19T04:23:29.311Z,314.65
2023-03-19T04:28:29.269Z,316.15
2023-03-19T04:33:29.174Z,314.65
2023-03-19T04:38:29.121Z,315.55
2023-03-19T04:43:29.081Z,316.15
2023-03-19T04:48:29.002Z,315.85
2023-03-19T04:53:28.925Z,317.06
2023-03-19T04:58:28.862Z,316.15
2023-03-19T05:03:28.828Z,318.27
2023-03-19T05:08:28.732Z,316.76
2023-03-19T05:13:28.645Z,319.19
2023-03-19T05:18:28.583Z,319.19
2023-03-19T05:23:28.519Z,321.05
2023-03-19T05:28:28.527Z,321.98
2023-03-19T05:33:28.383Z,319.50
2023-03-19T05:38:28.320Z,319.19
2023-03-19T05:43:28.246Z,315.25
2023-03-19T05:48:28.182Z,314.36
2023-03-19T05:53:28.102Z,316.15
2023-03-19T05:58:28.046Z,317.67
2023-03-19T06:03:27.977Z,322.92
2023-03-19T06:08:27.887Z,327.38
2023-03-19T06:13:27.848Z,327.71
2023-03-19T06:18:27.780Z,331.97
2023-03-19T06:23:27.717Z,331.30
2023-03-19T06:28:27.630Z,333.64
2023-03-19T06:33:27.563Z,333.30
2023-03-19T06:38:27.502Z,329.33
2023-03-19T06:43:27.441Z,326.74
2023-03-19T06:48:27.357Z,321.98
2023-03-19T06:53:27.349Z,321.05
2023-03-19T06:58:27.249Z,325.77
2023-03-19T07:03:38.117Z,327.06
2023-03-19T07:08:30.521Z,329.33
2023-03-19T07:13:30.450Z,333.30
2023-03-19T07:18:30.380Z,336.68
2023-03-19T07:23:30.313Z,333.97
2023-03-19T07:28:30.251Z,330.97
2023-03-19T07:33:30.173Z,326.74
2023-03-19T07:38:30.112Z,326.10
2023-03-19T07:43:30.040Z,325.46
2023-03-19T07:48:29.998Z,323.55
2023-03-19T07:53:29.893Z,325.77
2023-03-19T07:58:29.835Z,326.74
2023-03-19T08:03:29.774Z,323.55
2023-03-19T08:08:29.707Z,323.24
2023-03-19T08:13:29.624Z,319.50
2023-03-19T08:18:29.567Z,316.45
2023-03-19T08:23:29.560Z,312.87
2023-03-19T08:28:29.437Z,310.24
2023-03-19T08:33:29.347Z,308.22
2023-03-19T08:38:29.351Z,305.39
2023-03-19T08:43:29.218Z,300.95
2023-03-19T08:48:29.176Z,299.60
2023-03-19T08:53:29.100Z,296.38
2023-03-19T08:58:29.025Z,293.76
2023-03-19T09:03:28.957Z,293.24
2023-03-19T09:08:28.907Z,294.02
2023-03-19T09:13:28.800Z,291.95
2023-03-19T09:18:28.763Z,290.42
2023-03-19T09:23:28.702Z,287.65
2023-03-19T09:28:28.629Z,284.93
2023-03-19T09:33:28.590Z,283.95
2023-03-19T09:38:28.501Z,283.47
2023-03-19T09:43:28.423Z,284.20
2023-03-19T09:48:28.330Z,283.23
2023-03-19T09:53:28.271Z,287.65
2023-03-19T09:58:28.232Z,286.41
2023-03-19T10:03:29.006Z,285.67
2023-03-19T10:08:28.112Z,287.40
2023-03-19T10:13:27.998Z,291.18
2023-03-19T10:18:27.962Z,296.91
2023-03-19T10:23:27.865Z,302.33
2023-03-19T10:28:27.811Z,303.99
2023-03-19T10:33:27.739Z,306.23
2023-03-19T10:38:27.679Z,305.11
2023-03-19T10:43:27.607Z,302.88
2023-03-19T10:48:28.353Z,299.33
2023-03-19T10:53:27.499Z,298.52
2023-03-19T10:58:27.441Z,297.45
2023-03-19T11:03:27.317Z,293.24
2023-03-19T11:08:35.610Z,291.69
2023-03-19T11:13:28.338Z,295.07
2023-03-19T11:18:27.326Z,295.86
2023-03-19T11:23:27.066Z,293.24
2023-03-19T11:28:27.007Z,292.98
2023-03-19T11:33:26.951Z,297.98
2023-03-19T11:38:26.888Z,302.33
2023-03-19T11:43:26.786Z,303.99
2023-03-19T11:48:26.731Z,304.27
2023-03-19T11:53:26.679Z,305.39
2023-03-19T11:58:26.619Z,310.24
2023-03-19T12:03:26.556Z,307.94
2023-03-19T12:08:26.488Z,306.23
2023-03-19T12:13:26.363Z,305.39
2023-03-19T12:18:26.355Z,298.79
2023-03-19T12:23:26.257Z,297.45
2023-03-19T12:28:26.243Z,301.23
2023-03-19T12:33:26.123Z,300.68
2023-03-19T12:38:26.075Z,300.41
2023-03-19T12:43:25.987Z,295.59
2023-03-19T12:48:25.939Z,289.66
2023-03-19T12:53:25.846Z,288.15
2023-03-19T12:58:25.798Z,283.23
2023-03-19T13:03:25.713Z,278.47
2023-03-19T13:08:25.660Z,276.39
2023-03-19T13:13:25.610Z,270.97
2023-03-19T13:18:25.500Z,264.91
2023-03-19T13:23:25.444Z,263.44
2023-03-19T13:28:25.422Z,259.73
2023-03-19T13:33:25.360Z,259.32
2023-03-19T13:38:25.656Z,260.54
2023-03-19T13:43:28.363Z,258.51
2023-03-19T13:48:25.167Z,256.12
2023-03-19T13:53:25.028Z,253.77
2023-03-19T13:58:24.995Z,253.38
2023-03-19T14:03:25.771Z,252.23
2023-03-19T14:08:24.899Z,252.23
2023-03-19T14:13:24.811Z,255.53
2023-03-19T14:18:24.813Z,250.70
2023-03-19T14:23:37.598Z,249.38
2023-03-19T14:28:25.685Z,251.27
2023-03-19T14:33:24.521Z,253.96
2023-03-19T14:38:24.470Z,254.74
2023-03-19T14:43:24.375Z,255.13
2023-03-19T14:48:24.322Z,256.32
2023-03-19T14:53:24.224Z,258.51
2023-03-19T14:58:24.190Z,258.11
2023-03-19T15:03:24.091Z,258.11
2023-03-19T15:08:24.031Z,263.44
2023-03-19T15:13:24.051Z,266.19
2023-03-19T15:18:23.901Z,273.20
2023-03-19T15:23:27.079Z,271.19
2023-03-19T15:28:23.762Z,274.33
2023-03-19T15:33:37.317Z,272.98
2023-03-19T15:38:24.646Z,275.24
2023-03-19T15:43:23.538Z,280.83
2023-03-19T15:48:23.518Z,280.12
2023-03-19T15:53:23.432Z,278.94
2023-03-19T15:58:23.364Z,283.47
2023-03-19T16:03:23.283Z,278.71
2023-03-19T16:08:23.217Z,281.31
2023-03-19T16:13:23.138Z,276.85
2023-03-19T16:18:23.087Z,278.94
2023-03-19T16:23:23.000Z,274.56
2023-03-19T16:28:22.961Z,274.56
2023-03-19T16:33:22.886Z,275.47
2023-03-19T16:38:22.875Z,273.42
2023-03-19T16:43:22.742Z,272.53
2023-03-19T16:48:22.682Z,274.78
2023-03-19T16:53:22.614Z,274.56
2023-03-19T16:58:22.576Z,274.10
2023-03-19T17:03:22.436Z,272.53
2023-03-19T17:08:22.417Z,270.09
2023-03-19T17:13:22.318Z,265.76
2023-03-19T17:18:22.268Z,262.81
2023-03-19T17:23:22.179Z,258.92
2023-03-19T17:28:22.164Z,259.52
2023-03-19T17:33:22.028Z,257.71
2023-03-19T17:38:22.007Z,257.51
2023-03-19T17:43:21.927Z,257.91
2023-03-19T17:48:21.879Z,255.33
2023-03-19T17:53:21.814Z,253.77
2023-03-19T17:58:21.754Z,251.08
2023-03-19T18:03:22.015Z,249.76
2023-03-19T18:08:21.592Z,247.34
2023-03-19T18:13:21.527Z,248.82
2023-03-19T18:18:21.459Z,246.24
2023-03-19T18:23:21.403Z,245.51
2023-03-19T18:28:21.329Z,245.51
2023-03-19T18:33:22.232Z,246.05
2023-03-19T18:38:21.233Z,244.96
2023-03-19T18:43:21.120Z,245.69
2023-03-19T18:48:21.072Z,246.05
2023-03-19T18:53:20.990Z,248.26
2023-03-19T18:58:20.964Z,249.01
2023-03-19T19:03:20.887Z,249.38
2023-03-19T19:08:21.053Z,250.89
2023-03-19T19:13:20.735Z,249.95
2023-03-19T19:18:20.627Z,250.89
2023-03-19T19:23:20.618Z,251.27
2023-03-19T19:28:20.603Z,249.57
2023-03-19T19:33:20.455Z,250.70
2023-03-19T19:38:20.370Z,249.95
2023-03-19T19:43:20.347Z,249.76
2023-03-19T19:48:20.236Z,251.08
2023-03-19T19:53:20.181Z,250.51
2023-03-19T19:58:20.098Z,250.51
2023-03-19T20:03:20.100Z,252.23
2023-03-19T20:08:19.980Z,251.46
2023-03-19T20:13:19.895Z,251.65
2023-03-19T20:18:19.847Z,251.27
2023-03-19T20:23:19.786Z,252.23
2023-03-19T20:28:20.042Z,252.61
2023-03-19T20:33:19.720Z,253.19
2023-03-19T20:38:19.581Z,253.77
2023-03-19T20:43:19.511Z,254.35
2023-03-19T20:48:19.443Z,253.57
2023-03-19T20:53:19.383Z,256.91
2023-03-19T20:58:19.292Z,258.31
2023-03-19T21:03:19.359Z,254.74
2023-03-19T21:08:19.161Z,254.55
2023-03-19T21:13:19.078Z,253.77
2023-03-19T21:18:19.052Z,255.92
2023-03-19T21:23:18.976Z,254.55
2023-03-19T21:28:18.887Z,254.16
2023-03-19T21:33:18.970Z,254.55
2023-03-19T21:38:18.767Z,254.35
2023-03-19T21:43:18.713Z,256.12
2023-03-19T21:48:18.621Z,252.99
2023-03-19T21:53:18.563Z,254.16
2023-03-19T21:58:18.473Z,254.94
2023-03-19T22:03:18.434Z,256.71
2023-03-19T22:08:18.337Z,255.92
2023-03-19T22:13:18.293Z,256.71
2023-03-19T22:18:18.201Z,258.11
2023-03-19T22:23:18.166Z,260.14
2023-03-19T22:28:18.075Z,259.32
2023-03-19T22:33:18.018Z,259.12
2023-03-19T22:38:17.958Z,258.92
2023-03-19T22:43:17.888Z,257.91
2023-03-19T22:48:17.805Z,260.75
2023-03-19T22:53:17.756Z,261.16
2023-03-19T22:58:17.666Z,258.51
2023-03-19T23:03:17.610Z,258.51
2023-03-19T23:08:17.530Z,256.91
2023-03-19T23:13:17.476Z,259.12
2023-03-19T23:18:17.388Z,258.31
2023-03-19T23:23:19.237Z,259.32
2023-03-19T23:28:17.262Z,260.75
2023-03-19T23:33:17.217Z,259.52
2023-03-19T23:38:17.129Z,258.92
2023-03-19T23:43:17.073Z,258.51
2023-03-19T23:48:17.000Z,260.34
2023-03-19T23:53:16.939Z,259.73
2023-03-19T23:58:16.857Z,264.28
